createdAt,value
2024-01-16T00:00:07.297Z,92641.07
2024-01-16T00:00:41.335Z,92657.97
2024-01-16T00:01:46.773Z,92647.88
2024-01-16T00:02:20.519Z,92655.77
2024-01-16T00:02:55.067Z,92649.83
2024-01-16T00:03:28.818Z,92661.51
2024-01-16T00:04:03.122Z,92655.17
2024-01-16T00:04:41.515Z,92657.77
2024-01-16T00:05:28.275Z,92657.67
2024-01-16T00:06:02.381Z,92659.46
2024-01-16T00:06:40.377Z,92664.13
2024-01-16T00:07:14.259Z,92664.87
2024-01-16T00:07:47.728Z,92666.95
2024-01-16T00:08:21.109Z,92668.90
2024-01-16T00:09:11.383Z,92668.92
2024-01-16T00:09:44.872Z,92672.80
2024-01-16T00:10:20.347Z,92675.50
2024-01-16T00:10:54.021Z,92669.52
2024-01-16T00:11:27.807Z,92673.24
2024-01-16T00:12:02.155Z,92678.11
2024-01-16T00:12:50.400Z,92670.07
2024-01-16T00:13:24.092Z,92674.85
2024-01-16T00:13:57.765Z,92674.00
2024-01-16T00:14:31.363Z,92673.70
2024-01-16T00:15:05.186Z,92672.01
2024-01-16T00:15:38.724Z,92666.55
2024-01-16T00:16:26.119Z,92670.54
2024-01-16T00:16:59.693Z,92664.75
2024-01-16T00:17:33.524Z,92665.03
2024-01-16T00:18:07.692Z,92667.93
2024-01-16T00:18:41.528Z,92663.18
2024-01-16T00:19:15.669Z,92669.45
2024-01-16T00:20:07.233Z,92668.46
2024-01-16T00:20:40.810Z,92669.34
2024-01-16T00:21:14.572Z,92665.77
2024-01-16T00:21:48.606Z,92670.90
2024-01-16T00:22:22.741Z,92685.02
2024-01-16T00:22:56.194Z,92669.75
2024-01-16T00:23:48.286Z,92667.25
2024-01-16T00:24:21.640Z,92680.31
2024-01-16T00:24:55.145Z,92673.80
2024-01-16T00:25:28.800Z,92677.80
2024-01-16T00:26:02.473Z,92674.14
2024-01-16T00:26:37.910Z,92674.94
2024-01-16T00:27:28.722Z,92681.33
2024-01-16T00:28:02.915Z,92678.27
2024-01-16T00:28:38.286Z,92674.08
2024-01-16T00:29:13.967Z,92684.40
2024-01-16T00:29:48.002Z,92682.48
2024-01-16T00:30:21.733Z,92684.14
2024-01-16T00:31:15.494Z,92676.09
2024-01-16T00:31:49.797Z,92687.94
2024-01-16T00:32:25.479Z,92680.58
2024-01-16T00:32:59.861Z,92686.25
2024-01-16T00:33:33.619Z,92686.10
2024-01-16T00:34:07.248Z,92683.17
2024-01-16T00:34:50.354Z,92685.11
2024-01-16T00:35:24.120Z,92686.19
2024-01-16T00:35:58.022Z,92689.30
2024-01-16T00:36:32.115Z,92688.39
2024-01-16T00:37:05.802Z,92681.38
2024-01-16T00:37:39.937Z,92692.50
2024-01-16T00:38:34.200Z,92684.85
2024-01-16T00:39:08.943Z,92688.17
2024-01-16T00:39:43.765Z,92693.23
2024-01-16T00:40:18.748Z,92695.85
2024-01-16T00:40:52.486Z,92702.27
2024-01-16T00:41:26.140Z,92701.36
2024-01-16T00:42:09.849Z,92690.27
2024-01-16T00:42:43.226Z,92688.72
2024-01-16T00:43:16.951Z,92688.68
2024-01-16T00:43:50.725Z,92687.20
2024-01-16T00:44:24.206Z,92694.00
2024-01-16T00:44:57.989Z,92691.60
2024-01-16T00:45:51.112Z,92693.31
2024-01-16T00:46:24.796Z,92689.55
2024-01-16T00:46:58.711Z,92696.66
2024-01-16T00:47:33.617Z,92705.23
2024-01-16T00:48:07.627Z,92706.95
2024-01-16T00:48:41.265Z,92697.11
2024-01-16T00:49:32.444Z,92698.81
2024-01-16T00:50:10.865Z,92704.80
2024-01-16T00:50:44.740Z,92706.81
2024-01-16T00:51:18.449Z,92708.90
2024-01-16T00:51:52.314Z,92713.30
2024-01-16T00:52:26.325Z,92717.80
2024-01-16T00:53:22.899Z,92709.54
2024-01-16T00:53:59.160Z,92715.74
2024-01-16T00:54:32.964Z,92709.79
2024-01-16T00:55:13.641Z,92711.54
2024-01-16T00:55:53.755Z,92715.65
2024-01-16T00:57:04.420Z,92721.72
2024-01-16T00:57:38.027Z,92725.87
2024-01-16T00:58:11.607Z,92724.50
2024-01-16T00:58:44.952Z,92725.89
2024-01-16T00:59:21.343Z,92729.90
2024-01-16T00:59:54.802Z,92739.24
2024-01-16T01:00:38.895Z,92728.95
2024-01-16T01:01:12.419Z,92729.27
2024-01-16T01:01:46.095Z,92736.15
2024-01-16T01:02:19.820Z,92733.36
2024-01-16T01:02:53.653Z,92738.07
2024-01-16T01:03:27.955Z,92733.99
2024-01-16T01:04:19.609Z,92742.34
2024-01-16T01:04:53.233Z,92744.33
2024-01-16T01:05:31.951Z,92741.34
2024-01-16T01:06:07.764Z,92738.54
2024-01-16T01:06:41.617Z,92740.20
2024-01-16T01:07:15.908Z,92743.70
2024-01-16T01:08:02.854Z,92741.77
2024-01-16T01:08:37.037Z,92744.37
2024-01-16T01:09:13.259Z,92740.29
2024-01-16T01:09:48.171Z,92735.48
2024-01-16T01:10:22.060Z,92741.23
2024-01-16T01:10:56.232Z,92743.92
2024-01-16T01:11:44.964Z,92738.02
2024-01-16T01:12:18.688Z,92738.46
2024-01-16T01:12:54.703Z,92742.48
2024-01-16T01:13:28.369Z,92735.70
2024-01-16T01:14:02.005Z,92735.00
2024-01-16T01:14:35.722Z,92739.10
2024-01-16T01:15:26.214Z,92735.27
2024-01-16T01:15:59.874Z,92737.24
2024-01-16T01:16:33.830Z,92732.44
2024-01-16T01:17:07.977Z,92739.04
2024-01-16T01:17:41.901Z,92731.73
2024-01-16T01:18:16.592Z,92737.95
2024-01-16T01:19:07.573Z,92734.27
2024-01-16T01:19:41.208Z,92732.40
2024-01-16T01:20:15.144Z,92737.89
2024-01-16T01:20:49.998Z,92729.20
2024-01-16T01:21:23.899Z,92731.39
2024-01-16T01:21:57.814Z,92740.95
2024-01-16T01:22:48.682Z,92731.79
2024-01-16T01:23:22.142Z,92737.64
2024-01-16T01:23:55.864Z,92733.54
2024-01-16T01:24:29.435Z,92726.81
2024-01-16T01:25:03.128Z,92730.96
2024-01-16T01:25:42.350Z,92726.94
2024-01-16T01:26:31.335Z,92735.77
2024-01-16T01:27:06.803Z,92727.73
2024-01-16T01:27:40.621Z,92735.98
2024-01-16T01:28:14.392Z,92733.90
2024-01-16T01:28:48.474Z,92732.50
2024-01-16T01:29:22.308Z,92730.20
2024-01-16T01:30:13.004Z,92729.42
2024-01-16T01:30:46.516Z,92735.20
2024-01-16T01:31:20.308Z,92738.84
2024-01-16T01:31:53.807Z,92734.96
2024-01-16T01:32:28.534Z,92739.02
2024-01-16T01:33:02.424Z,92738.11
2024-01-16T01:33:49.197Z,92735.45
2024-01-16T01:34:23.722Z,92734.50
2024-01-16T01:34:57.590Z,92743.34
2024-01-16T01:35:33.707Z,92732.83
2024-01-16T01:36:09.510Z,92738.28
2024-01-16T01:36:44.842Z,92735.55
2024-01-16T01:37:32.289Z,92744.08
2024-01-16T01:38:05.761Z,92745.42
2024-01-16T01:38:39.642Z,92741.13
2024-01-16T01:39:13.190Z,92740.65
2024-01-16T01:39:46.562Z,92738.30
2024-01-16T01:40:20.103Z,92741.95
2024-01-16T01:41:09.057Z,92738.39
2024-01-16T01:41:42.922Z,92742.36
2024-01-16T01:42:17.090Z,92737.69
2024-01-16T01:42:50.876Z,92734.56
2024-01-16T01:43:25.545Z,92737.41
2024-01-16T01:43:59.070Z,92736.77
2024-01-16T01:45:12.621Z,92739.98
2024-01-16T01:45:46.032Z,92744.70
2024-01-16T01:46:20.358Z,92729.73
2024-01-16T01:46:57.592Z,92739.45
2024-01-16T01:47:31.832Z,92733.27
2024-01-16T01:48:33.523Z,92732.55
2024-01-16T01:49:07.080Z,92733.39
2024-01-16T01:49:41.053Z,92737.20
2024-01-16T01:50:15.188Z,92733.00
2024-01-16T01:50:49.428Z,92734.54
2024-01-16T01:51:23.384Z,92732.84
2024-01-16T01:52:10.434Z,92730.05
2024-01-16T01:52:44.661Z,92731.45
2024-01-16T01:53:18.827Z,92728.02
2024-01-16T01:53:54.051Z,92726.66
2024-01-16T01:54:28.048Z,92734.13
2024-01-16T01:55:03.422Z,92726.23
2024-01-16T01:55:52.194Z,92731.11
2024-01-16T01:56:26.106Z,92730.80
2024-01-16T01:56:59.860Z,92741.60
2024-01-16T01:57:34.494Z,92741.46
2024-01-16T01:58:08.120Z,92744.31
2024-01-16T01:58:43.151Z,92745.60
2024-01-16T01:59:33.450Z,92741.41
2024-01-16T02:00:07.725Z,92740.58
2024-01-16T02:00:50.783Z,92745.42
2024-01-16T02:01:29.981Z,92733.14
2024-01-16T02:02:04.381Z,92736.77
2024-01-16T02:02:38.493Z,92738.75
2024-01-16T02:03:30.970Z,92737.55
2024-01-16T02:04:05.875Z,92747.91
2024-01-16T02:04:39.731Z,92747.82
2024-01-16T02:05:13.881Z,92740.67
2024-01-16T02:05:47.695Z,92748.33
2024-01-16T02:06:24.019Z,92743.95
2024-01-16T02:07:13.261Z,92751.30
2024-01-16T02:07:47.628Z,92752.30
2024-01-16T02:08:21.513Z,92746.11
2024-01-16T02:08:55.374Z,92751.60
2024-01-16T02:09:28.974Z,92755.52
2024-01-16T02:10:02.679Z,92746.96
2024-01-16T02:10:51.668Z,92747.00
2024-01-16T02:11:25.482Z,92759.06
2024-01-16T02:11:59.546Z,92748.54
2024-01-16T02:12:33.377Z,92752.47
2024-01-16T02:13:07.106Z,92757.00
2024-01-16T02:13:40.705Z,92760.34
2024-01-16T02:14:30.730Z,92754.50
2024-01-16T02:15:04.582Z,92746.25
2024-01-16T02:15:40.856Z,92747.88
2024-01-16T02:16:20.549Z,92752.45
2024-01-16T02:16:54.652Z,92752.77
2024-01-16T02:17:31.180Z,92756.55
2024-01-16T02:18:15.853Z,92755.02
2024-01-16T02:18:50.184Z,92757.79
2024-01-16T02:19:25.140Z,92756.58
2024-01-16T02:19:58.947Z,92760.09
2024-01-16T02:20:32.782Z,92753.78
2024-01-16T02:21:08.102Z,92760.66
2024-01-16T02:22:02.546Z,92759.78
2024-01-16T02:22:37.351Z,92754.92
2024-01-16T02:23:12.122Z,92755.30
2024-01-16T02:23:45.885Z,92746.61
2024-01-16T02:24:20.511Z,92746.64
2024-01-16T02:24:54.620Z,92753.75
2024-01-16T02:25:45.657Z,92750.20
2024-01-16T02:26:19.587Z,92748.27
2024-01-16T02:26:53.278Z,92759.84
2024-01-16T02:27:29.694Z,92753.02
2024-01-16T02:28:04.357Z,92760.21
2024-01-16T02:29:17.971Z,92759.14
2024-01-16T02:29:51.739Z,92751.61
2024-01-16T02:30:25.435Z,92757.55
2024-01-16T02:30:59.314Z,92755.30
2024-01-16T02:31:35.590Z,92757.36
2024-01-16T02:32:14.276Z,92752.21
2024-01-16T02:32:58.352Z,92764.42
2024-01-16T02:33:31.928Z,92763.33
2024-01-16T02:34:05.768Z,92763.77
2024-01-16T02:34:39.781Z,92758.98
2024-01-16T02:35:13.841Z,92760.17
2024-01-16T02:35:47.850Z,92755.84
2024-01-16T02:38:16.090Z,92755.87
2024-01-16T02:38:50.901Z,92766.23
2024-01-16T02:39:24.857Z,92762.88
2024-01-16T02:39:59.275Z,92762.66
2024-01-16T02:40:52.381Z,92768.17
2024-01-16T02:41:26.868Z,92773.70
2024-01-16T02:42:00.918Z,92761.92
2024-01-16T02:42:34.441Z,92767.25
2024-01-16T02:43:07.904Z,92777.89
2024-01-16T02:43:41.916Z,92779.27
2024-01-16T02:44:34.436Z,92770.06
2024-01-16T02:45:08.205Z,92779.63
2024-01-16T02:45:42.909Z,92779.13
2024-01-16T02:46:16.784Z,92782.53
2024-01-16T02:46:50.839Z,92783.55
2024-01-16T02:47:24.905Z,92781.67
2024-01-16T02:48:15.611Z,92791.88
2024-01-16T02:48:50.163Z,92783.30
2024-01-16T02:49:24.081Z,92787.30
2024-01-16T02:49:59.188Z,92793.63
2024-01-16T02:50:32.862Z,92785.85
2024-01-16T02:51:06.499Z,92784.67
2024-01-16T02:51:57.542Z,92794.70
2024-01-16T02:52:31.609Z,92796.63
2024-01-16T02:53:05.416Z,92797.14
2024-01-16T02:53:39.024Z,92802.88
2024-01-16T02:54:13.475Z,92788.48
2024-01-16T02:54:47.325Z,92792.48
2024-01-16T02:55:38.932Z,92800.39
2024-01-16T02:56:12.712Z,92792.83
2024-01-16T02:56:47.365Z,92797.66
2024-01-16T02:57:21.756Z,92796.17
2024-01-16T02:57:55.273Z,92800.38
2024-01-16T02:58:29.387Z,92804.62
2024-01-16T02:59:20.840Z,92801.55
2024-01-16T02:59:54.657Z,92792.73
2024-01-16T03:00:31.262Z,92797.60
2024-01-16T03:01:05.164Z,92808.58
2024-01-16T03:01:38.618Z,92803.50
2024-01-16T03:02:13.010Z,92802.19
2024-01-16T03:03:02.311Z,92802.84
2024-01-16T03:03:36.733Z,92812.16
2024-01-16T03:04:10.529Z,92813.38
2024-01-16T03:04:49.138Z,92809.17
2024-01-16T03:05:24.070Z,92807.23
2024-01-16T03:05:58.292Z,92811.10
2024-01-16T03:06:45.941Z,92811.11
2024-01-16T03:07:21.002Z,92810.29
2024-01-16T03:07:55.700Z,92808.48
2024-01-16T03:08:29.746Z,92811.44
2024-01-16T03:09:03.506Z,92803.83
2024-01-16T03:09:40.810Z,92799.59
2024-01-16T03:10:33.844Z,92813.42
2024-01-16T03:11:07.621Z,92813.13
2024-01-16T03:11:41.493Z,92812.63
2024-01-16T03:12:15.089Z,92809.14
2024-01-16T03:12:48.629Z,92819.48
2024-01-16T03:13:22.015Z,92813.48
2024-01-16T03:14:07.239Z,92819.59
2024-01-16T03:14:40.958Z,92814.54
2024-01-16T03:15:17.555Z,92826.13
2024-01-16T03:15:51.190Z,92822.93
2024-01-16T03:16:24.953Z,92822.88
2024-01-16T03:16:58.696Z,92831.30
2024-01-16T03:17:47.530Z,92830.29
2024-01-16T03:18:21.825Z,92821.53
2024-01-16T03:18:56.102Z,92825.99
2024-01-16T03:19:33.498Z,92819.02
2024-01-16T03:20:08.407Z,92826.45
2024-01-16T03:20:42.198Z,92821.86
2024-01-16T03:21:28.923Z,92818.62
2024-01-16T03:22:02.313Z,92818.42
2024-01-16T03:22:36.164Z,92811.40
2024-01-16T03:23:10.543Z,92819.10
2024-01-16T03:23:44.597Z,92817.22
2024-01-16T03:24:21.474Z,92812.70
2024-01-16T03:25:10.470Z,92810.11
2024-01-16T03:25:44.144Z,92818.07
2024-01-16T03:26:18.443Z,92822.65
2024-01-16T03:26:53.454Z,92820.78
2024-01-16T03:27:27.235Z,92813.52
2024-01-16T03:28:01.467Z,92818.91
2024-01-16T03:28:48.727Z,92820.70
2024-01-16T03:29:22.559Z,92817.60
2024-01-16T03:29:57.932Z,92820.55
2024-01-16T03:30:32.485Z,92824.02
2024-01-16T03:31:06.024Z,92819.70
2024-01-16T03:31:39.519Z,92817.73
2024-01-16T03:32:29.871Z,92821.63
2024-01-16T03:33:04.144Z,92809.73
2024-01-16T03:33:44.009Z,92813.89
2024-01-16T03:34:18.127Z,92820.06
2024-01-16T03:34:54.174Z,92825.41
2024-01-16T03:35:30.408Z,92829.28
2024-01-16T03:36:14.708Z,92829.05
2024-01-16T03:36:48.590Z,92830.91
2024-01-16T03:37:22.523Z,92828.22
2024-01-16T03:37:56.324Z,92829.86
2024-01-16T03:38:30.527Z,92826.36
2024-01-16T03:39:04.593Z,92837.34
2024-01-16T03:39:57.796Z,92828.02
2024-01-16T03:40:35.706Z,92829.57
2024-01-16T03:41:09.441Z,92834.77
2024-01-16T03:41:43.427Z,92830.42
2024-01-16T03:42:17.207Z,92830.84
2024-01-16T03:42:51.539Z,92835.02
2024-01-16T03:43:36.125Z,92836.85
2024-01-16T03:44:10.015Z,92836.89
2024-01-16T03:44:43.999Z,92835.60
2024-01-16T03:45:18.237Z,92830.25
2024-01-16T03:45:51.713Z,92832.70
2024-01-16T03:46:25.447Z,92835.05
2024-01-16T03:47:14.008Z,92837.13
2024-01-16T03:47:47.798Z,92845.48
2024-01-16T03:48:21.919Z,92846.48
2024-01-16T03:48:55.980Z,92842.96
2024-01-16T03:49:29.761Z,92850.55
2024-01-16T03:50:03.479Z,92848.38
2024-01-16T03:50:58.028Z,92840.35
2024-01-16T03:51:31.840Z,92845.67
2024-01-16T03:52:06.145Z,92841.85
2024-01-16T03:52:39.841Z,92844.33
2024-01-16T03:53:13.560Z,92848.90
2024-01-16T03:53:47.431Z,92849.42
2024-01-16T03:54:34.912Z,92849.02
2024-01-16T03:55:08.422Z,92845.84
2024-01-16T03:55:42.197Z,92849.25
2024-01-16T03:56:19.432Z,92848.13
2024-01-16T03:56:55.007Z,92843.58
2024-01-16T03:57:29.127Z,92851.18
2024-01-16T03:58:15.697Z,92844.61
2024-01-16T03:58:52.582Z,92849.89
2024-01-16T03:59:26.380Z,92852.48
2024-01-16T03:59:59.889Z,92845.39
2024-01-16T04:00:33.458Z,92847.16
2024-01-16T04:01:07.264Z,92850.67
2024-01-16T04:01:55.007Z,92850.14
2024-01-16T04:02:28.731Z,92852.98
2024-01-16T04:03:02.444Z,92852.82
2024-01-16T04:03:40.206Z,92858.20
2024-01-16T04:04:14.795Z,92853.59
2024-01-16T04:04:49.596Z,92854.79
2024-01-16T04:05:36.715Z,92854.10
2024-01-16T04:06:22.195Z,92851.63
2024-01-16T04:06:59.109Z,92839.73
2024-01-16T04:07:32.741Z,92856.83
2024-01-16T04:08:06.755Z,92853.04
2024-01-16T04:08:41.071Z,92853.66
2024-01-16T04:09:31.566Z,92857.66
2024-01-16T04:10:06.773Z,92853.01
2024-01-16T04:10:40.085Z,92852.98
2024-01-16T04:11:15.461Z,92853.69
2024-01-16T04:11:51.878Z,92860.83
2024-01-16T04:12:26.738Z,92857.52
2024-01-16T04:13:14.470Z,92856.75
2024-01-16T04:13:47.783Z,92858.25
2024-01-16T04:14:21.467Z,92860.85
2024-01-16T04:14:55.053Z,92857.05
2024-01-16T04:15:28.549Z,92858.25
2024-01-16T04:16:01.739Z,92856.18
2024-01-16T04:16:55.428Z,92861.02
2024-01-16T04:17:29.009Z,92866.73
2024-01-16T04:18:02.577Z,92869.39
2024-01-16T04:18:40.436Z,92869.73
2024-01-16T04:19:14.229Z,92873.23
2024-01-16T04:19:48.808Z,92872.73
2024-01-16T04:20:35.542Z,92858.70
2024-01-16T04:21:09.376Z,92865.54
2024-01-16T04:21:43.145Z,92877.71
2024-01-16T04:22:19.206Z,92867.91
2024-01-16T04:22:53.084Z,92867.41
2024-01-16T04:23:26.785Z,92868.30
2024-01-16T04:24:16.702Z,92871.02
2024-01-16T04:24:50.263Z,92873.27
2024-01-16T04:25:24.002Z,92869.62
2024-01-16T04:25:57.517Z,92863.60
2024-01-16T04:26:31.012Z,92866.67
2024-01-16T04:27:04.746Z,92870.78
2024-01-16T04:28:00.880Z,92874.31
2024-01-16T04:28:36.195Z,92878.45
2024-01-16T04:29:11.213Z,92870.88
2024-01-16T04:29:45.136Z,92878.82
2024-01-16T04:30:21.866Z,92878.81
2024-01-16T04:30:55.859Z,92880.80
2024-01-16T04:31:42.893Z,92879.29
2024-01-16T04:32:17.201Z,92873.44
2024-01-16T04:32:51.360Z,92875.86
2024-01-16T04:33:25.331Z,92877.73
2024-01-16T04:33:59.313Z,92876.23
2024-01-16T04:34:33.484Z,92883.51
2024-01-16T04:35:20.452Z,92887.73
2024-01-16T04:35:54.183Z,92886.20
2024-01-16T04:36:28.158Z,92892.35
2024-01-16T04:37:01.896Z,92886.65
2024-01-16T04:37:38.715Z,92886.12
2024-01-16T04:38:13.728Z,92890.86
2024-01-16T04:39:01.837Z,92885.00
2024-01-16T04:39:35.499Z,92891.23
2024-01-16T04:40:09.407Z,92893.09
2024-01-16T04:40:43.374Z,92893.53
2024-01-16T04:41:19.233Z,92890.69
2024-01-16T04:41:52.870Z,92898.34
2024-01-16T04:42:45.034Z,92894.52
2024-01-16T04:43:18.712Z,92890.92
2024-01-16T04:43:52.300Z,92893.36
2024-01-16T04:44:26.202Z,92898.43
2024-01-16T04:45:00.160Z,92897.20
2024-01-16T04:45:33.907Z,92899.08
2024-01-16T04:46:21.636Z,92897.20
2024-01-16T04:46:55.226Z,92896.84
2024-01-16T04:47:28.895Z,92892.02
2024-01-16T04:48:02.456Z,92895.90
2024-01-16T04:48:35.994Z,92896.38
2024-01-16T04:49:10.248Z,92894.17
2024-01-16T04:50:08.409Z,92896.86
2024-01-16T04:50:41.982Z,92900.55
2024-01-16T04:51:16.221Z,92900.92
2024-01-16T04:51:52.076Z,92898.07
2024-01-16T04:52:26.465Z,92898.08
2024-01-16T04:53:03.385Z,92900.56
2024-01-16T04:53:44.990Z,92901.96
2024-01-16T04:54:18.657Z,92904.80
2024-01-16T04:54:54.467Z,92907.06
2024-01-16T04:55:28.704Z,92908.77
2024-01-16T04:56:02.491Z,92908.42
2024-01-16T04:56:36.229Z,92904.64
2024-01-16T04:57:27.195Z,92915.96
2024-01-16T04:58:01.690Z,92906.15
2024-01-16T04:58:35.156Z,92912.56
2024-01-16T04:59:08.589Z,92911.40
2024-01-16T04:59:43.203Z,92916.91
2024-01-16T05:00:18.873Z,92915.75
2024-01-16T05:01:09.774Z,92913.08
2024-01-16T05:01:43.625Z,92916.02
2024-01-16T05:02:18.847Z,92918.18
2024-01-16T05:02:54.586Z,92922.94
2024-01-16T05:03:29.141Z,92920.21
2024-01-16T05:04:03.045Z,92919.14
2024-01-16T05:04:53.503Z,92925.17
2024-01-16T05:05:30.100Z,92926.45
2024-01-16T05:06:04.279Z,92922.40
2024-01-16T05:06:37.914Z,92922.77
2024-01-16T05:07:12.180Z,92927.95
2024-01-16T05:07:48.798Z,92923.40
2024-01-16T05:08:33.169Z,92928.59
2024-01-16T05:09:07.529Z,92933.23
2024-01-16T05:09:41.078Z,92932.70
2024-01-16T05:10:14.974Z,92931.80
2024-01-16T05:10:51.145Z,92930.28
2024-01-16T05:11:25.040Z,92925.55
2024-01-16T05:12:12.490Z,92936.02
2024-01-16T05:12:45.986Z,92933.05
2024-01-16T05:13:20.088Z,92934.16
2024-01-16T05:13:59.347Z,92935.70
2024-01-16T05:14:33.123Z,92940.61
2024-01-16T05:15:07.019Z,92938.52
2024-01-16T05:15:54.289Z,92942.78
2024-01-16T05:16:30.456Z,92945.59
2024-01-16T05:17:04.193Z,92944.21
2024-01-16T05:17:37.755Z,92941.97
2024-01-16T05:18:11.526Z,92939.86
2024-01-16T05:18:46.038Z,92940.17
2024-01-16T05:19:38.158Z,92935.61
2024-01-16T05:20:13.078Z,92944.89
2024-01-16T05:20:46.674Z,92943.05
2024-01-16T05:21:20.169Z,92945.83
2024-01-16T05:21:53.494Z,92949.59
2024-01-16T05:22:26.985Z,92949.56
2024-01-16T05:23:20.344Z,92948.57
2024-01-16T05:23:53.580Z,92949.70
2024-01-16T05:24:26.892Z,92949.30
2024-01-16T05:25:01.125Z,92951.54
2024-01-16T05:25:34.519Z,92954.02
2024-01-16T05:26:07.920Z,92953.07
2024-01-16T05:27:00.937Z,92952.05
2024-01-16T05:27:36.369Z,92943.70
2024-01-16T05:28:09.912Z,92952.14
2024-01-16T05:28:43.524Z,92953.25
2024-01-16T05:29:18.440Z,92956.39
2024-01-16T05:29:52.157Z,92950.12
2024-01-16T05:30:38.996Z,92950.47
2024-01-16T05:31:12.352Z,92946.84
2024-01-16T05:31:45.791Z,92952.48
2024-01-16T05:32:19.340Z,92949.78
2024-01-16T05:32:53.966Z,92946.56
2024-01-16T05:33:27.806Z,92950.15
2024-01-16T05:34:19.755Z,92941.96
2024-01-16T05:34:53.727Z,92946.74
2024-01-16T05:35:27.031Z,92944.65
2024-01-16T05:36:00.748Z,92947.13
2024-01-16T05:36:34.459Z,92946.57
2024-01-16T05:37:08.076Z,92944.08
2024-01-16T05:38:02.001Z,92943.47
2024-01-16T05:38:37.726Z,92941.98
2024-01-16T05:39:16.147Z,92942.91
2024-01-16T05:39:49.692Z,92937.38
2024-01-16T05:40:23.744Z,92941.60
2024-01-16T05:40:57.618Z,92936.64
2024-01-16T05:41:45.377Z,92945.19
2024-01-16T05:42:19.245Z,92939.71
2024-01-16T05:42:53.491Z,92942.14
2024-01-16T05:43:26.820Z,92949.48
2024-01-16T05:44:00.519Z,92952.33
2024-01-16T05:44:37.566Z,92948.84
2024-01-16T05:45:22.183Z,92946.46
2024-01-16T05:45:56.555Z,92938.42
2024-01-16T05:46:32.558Z,92939.73
2024-01-16T05:47:07.254Z,92945.18
2024-01-16T05:47:40.868Z,92941.52
2024-01-16T05:48:14.950Z,92945.15
2024-01-16T05:49:02.600Z,92935.81
2024-01-16T05:49:37.286Z,92955.96
2024-01-16T05:50:11.361Z,92951.40
2024-01-16T05:50:45.632Z,92948.63
2024-01-16T05:51:21.237Z,92958.64
2024-01-16T05:51:56.692Z,92949.34
2024-01-16T05:52:44.337Z,92958.80
2024-01-16T05:53:18.662Z,92956.91
2024-01-16T05:53:52.129Z,92952.91
2024-01-16T05:54:25.411Z,92958.16
2024-01-16T05:55:01.120Z,92955.87
2024-01-16T05:55:36.890Z,92954.56
2024-01-16T05:56:20.558Z,92955.38
2024-01-16T05:56:54.104Z,92959.75
2024-01-16T05:57:27.811Z,92951.15
2024-01-16T05:58:02.516Z,92956.38
2024-01-16T05:58:40.164Z,92963.61
2024-01-16T05:59:14.007Z,92962.75
2024-01-16T06:00:04.770Z,92958.47
2024-01-16T06:00:41.677Z,92960.84
2024-01-16T06:01:16.191Z,92965.56
2024-01-16T06:01:53.150Z,92967.61
2024-01-16T06:02:27.691Z,92969.29
2024-01-16T06:03:39.045Z,92969.52
2024-01-16T06:04:14.774Z,92970.58
2024-01-16T06:04:48.869Z,92970.52
2024-01-16T06:05:22.620Z,92972.73
2024-01-16T06:05:56.599Z,92970.88
2024-01-16T06:06:30.712Z,92966.34
2024-01-16T06:07:22.315Z,92974.72
2024-01-16T06:07:55.965Z,92974.95
2024-01-16T06:08:29.570Z,92971.31
2024-01-16T06:09:06.617Z,92972.33
2024-01-16T06:09:41.498Z,92973.72
2024-01-16T06:10:16.268Z,92974.60
2024-01-16T06:11:07.290Z,92970.02
2024-01-16T06:11:44.980Z,92972.14
2024-01-16T06:12:18.887Z,92972.98
2024-01-16T06:12:53.500Z,92969.31
2024-01-16T06:13:28.138Z,92976.05
2024-01-16T06:14:40.947Z,92972.21
2024-01-16T06:15:14.565Z,92972.09
2024-01-16T06:15:48.660Z,92976.73
2024-01-16T06:16:23.766Z,92981.46
2024-01-16T06:16:57.502Z,92981.22
2024-01-16T06:17:31.065Z,92975.00
2024-01-16T06:18:21.817Z,92979.81
2024-01-16T06:18:55.801Z,92981.00
2024-01-16T06:19:29.253Z,92977.81
2024-01-16T06:20:05.272Z,92979.60
2024-01-16T06:20:38.945Z,92984.15
2024-01-16T06:21:13.517Z,92987.79
2024-01-16T06:22:03.040Z,92987.42
2024-01-16T06:22:36.864Z,92983.24
2024-01-16T06:23:10.660Z,92988.37
2024-01-16T06:23:44.140Z,92989.70
2024-01-16T06:24:17.892Z,92994.58
2024-01-16T06:24:51.541Z,92992.08
2024-01-16T06:25:44.342Z,92987.94
2024-01-16T06:26:18.396Z,92990.33
2024-01-16T06:26:52.955Z,92986.46
2024-01-16T06:27:26.645Z,92988.59
2024-01-16T06:28:02.521Z,92989.70
2024-01-16T06:28:37.790Z,92991.49
2024-01-16T06:29:32.024Z,92994.64
2024-01-16T06:30:11.421Z,92991.06
2024-01-16T06:30:45.187Z,92994.08
2024-01-16T06:31:19.484Z,92988.27
2024-01-16T06:31:52.925Z,92997.77
2024-01-16T06:32:26.387Z,92996.20
2024-01-16T06:33:09.264Z,92999.00
2024-01-16T06:33:42.774Z,92994.62
2024-01-16T06:34:16.397Z,92995.43
2024-01-16T06:34:52.711Z,92997.58
2024-01-16T06:35:26.154Z,92998.13
2024-01-16T06:36:00.078Z,93000.45
2024-01-16T06:36:50.507Z,92999.74
2024-01-16T06:37:24.034Z,92999.32
2024-01-16T06:37:57.483Z,93005.29
2024-01-16T06:38:31.479Z,93000.98
2024-01-16T06:39:05.794Z,93002.70
2024-01-16T06:39:40.845Z,93005.33
2024-01-16T06:40:31.129Z,93005.02
2024-01-16T06:41:06.796Z,93007.49
2024-01-16T06:41:42.617Z,93003.70
2024-01-16T06:42:16.055Z,93014.41
2024-01-16T06:42:49.387Z,93011.91
2024-01-16T06:43:26.393Z,93011.88
2024-01-16T06:44:17.553Z,93014.95
2024-01-16T06:44:51.160Z,93016.48
2024-01-16T06:45:27.421Z,93017.54
2024-01-16T06:46:01.002Z,93019.59
2024-01-16T06:46:36.671Z,93017.70
2024-01-16T06:47:11.345Z,93012.44
2024-01-16T06:47:56.823Z,93012.82
2024-01-16T06:48:30.656Z,93017.06
2024-01-16T06:49:04.365Z,93019.60
2024-01-16T06:49:38.289Z,93022.15
2024-01-16T06:50:12.036Z,93013.09
2024-01-16T06:50:45.561Z,93024.30
2024-01-16T06:51:38.159Z,93022.23
2024-01-16T06:52:11.655Z,93024.55
2024-01-16T06:52:45.066Z,93023.00
2024-01-16T06:53:18.507Z,93022.55
2024-01-16T06:53:52.831Z,93026.37
2024-01-16T06:54:27.378Z,93023.03
2024-01-16T06:55:18.696Z,93021.83
2024-01-16T06:55:52.655Z,93019.66
2024-01-16T06:56:29.421Z,93021.09
2024-01-16T06:57:03.011Z,93013.66
2024-01-16T06:57:36.347Z,93018.55
2024-01-16T06:58:11.595Z,93023.89
2024-01-16T06:59:00.182Z,93025.15
2024-01-16T06:59:33.599Z,93023.23
2024-01-16T07:00:09.004Z,93022.94
2024-01-16T07:00:47.151Z,93020.52
2024-01-16T07:01:21.399Z,93027.14
2024-01-16T07:01:56.420Z,93026.82
2024-01-16T07:02:47.193Z,93030.98
2024-01-16T07:03:20.724Z,93033.88
2024-01-16T07:03:54.212Z,93034.67
2024-01-16T07:04:27.880Z,93036.20
2024-01-16T07:05:04.909Z,93036.31
2024-01-16T07:05:38.731Z,93033.45
2024-01-16T07:06:28.408Z,93039.48
2024-01-16T07:07:01.909Z,93040.16
2024-01-16T07:07:35.334Z,93040.55
2024-01-16T07:08:09.528Z,93041.22
2024-01-16T07:08:48.771Z,93040.37
2024-01-16T07:09:22.354Z,93043.29
2024-01-16T07:10:14.645Z,93045.99
2024-01-16T07:10:48.306Z,93042.20
2024-01-16T07:11:24.968Z,93045.55
2024-01-16T07:11:59.023Z,93053.15
2024-01-16T07:12:32.876Z,93049.80
2024-01-16T07:13:06.636Z,93051.11
2024-01-16T07:13:52.889Z,93049.63
2024-01-16T07:14:27.063Z,93052.73
2024-01-16T07:15:02.581Z,93054.59
2024-01-16T07:15:36.709Z,93053.84
2024-01-16T07:16:13.246Z,93055.55
2024-01-16T07:16:46.881Z,93055.09
2024-01-16T07:17:30.713Z,93054.68
2024-01-16T07:18:04.248Z,93055.63